1972 RITA (1972187N09150)


On this page: IBTrACS data - Map and Plots - Positions - Intensities - Original source data

Summary

Start Jul 5
End Jul 30
Basin WP
LMI 145 kt
Sources jtwc_wp
tokyo
cma
hko
td9636
td9635
ds824_wp
In WMO? Yes
Previous storm 1972 PHYLLIS (WP)
Previous in basin 1972 PHYLLIS (WP)
Concurrent storms 1972 PHYLLIS (WP)
1972 RITA (WP)
1972 SUSAN (WP)
1972 MISSING (WP)
1972 SUSAN (WP)
1972 04B (NI)
1972 TESS (WP)
1972 MISSING (NA)
1972 05B (NI)
1972 MISSING (NA)
1972 VIOLA (WP)
1972 MISSING (WP)
1972 ALICE (WP)
1972 BONNY (EP)
1972 WINNIE (WP)
Next in basin 1972 SUSAN (WP)
Next storm 1972 SUSAN (WP)

top of page IBTrACS Data: File Access

No storm imagery available

top of page Plots:

Map of storm track will not appear if FTP is down
Time series of cyclone Maximum Sustained Wind will not appear if FTP is down
Time series of cyclone Minimum Central Pressure will not appear if FTP is down

top of page Track Data:Position

jtwc_wp tokyo cma hko td9636 td9635 ds824_wp
Date Lat Lon Lat Lon Lat Lon Lat Lon Lat Lon Lat Lon Lat Lon
1972-07-05 00:00:00 9.7 150.5 9.5 150.5 9.2 150.4 9.2 150.4 9.7 150.5
1972-07-05 06:00:00 9.8 150.2 9.6 150.0 9.7 149.8 9.7 149.8 9.8 150.2
1972-07-05 12:00:00 9.9 149.8 9.0 150.0 9.8 149.5 10.1 149.2 10.1 149.2 9.9 149.8
1972-07-05 18:00:00 10.1 149.0 9.5 149.5 9.9 149.1 10.2 148.6 10.2 148.5 10.1 149.0
1972-07-06 00:00:00 10.3 148.2 10.0 149.0 10.0 148.6 10.2 148.0 10.2 148.0 10.3 148.2
1972-07-06 06:00:00 10.4 147.5 10.0 148.0 10.0 148.0 10.2 147.3 10.2 147.4 10.4 147.5
1972-07-06 12:00:00 10.5 146.5 10.0 147.0 10.0 147.2 10.3 146.5 10.3 146.5 10.5 146.5
1972-07-06 18:00:00 10.5 145.5 10.0 146.0 10.1 146.3 10.4 145.7 10.3 145.6 10.5 145.5
1972-07-07 00:00:00 10.4 144.9 10.3 145.2 10.2 145.5 10.2 145.1 10.4 144.9 10.4 144.9 10.4 144.9
1972-07-07 06:00:00 10.4 144.2 10.4 144.4 10.3 144.6 10.3 144.4 10.4 144.1 10.4 144.2 10.4 144.2
1972-07-07 12:00:00 10.4 143.5 10.5 143.5 10.4 143.7 10.4 143.6 10.4 143.4 10.4 143.4 10.4 143.5
1972-07-07 18:00:00 10.6 142.6 10.7 142.7 10.8 142.8 10.8 142.5 10.7 142.5 10.6 142.6 10.6 142.6
1972-07-08 00:00:00 11.1 141.8 11.2 141.9 11.2 142.0 11.1 142.0 11.1 141.8 11.1 141.8 11.1 141.8
1972-07-08 06:00:00 11.6 141.4 11.6 141.4 11.7 141.4 11.7 141.3 11.5 141.4 11.6 141.4 11.6 141.4
1972-07-08 12:00:00 12.0 141.0 12.1 141.0 12.1 141.1 12.0 141.0 12.0 141.0 12.0 141.0 12.0 141.0
1972-07-08 18:00:00 12.7 140.5 12.6 140.5 12.6 140.6 12.6 140.5 12.5 140.5 12.7 140.5 12.7 140.5
1972-07-09 00:00:00 13.2 140.0 13.3 139.8 13.2 139.9 13.2 139.8 13.2 140.0 13.2 140.0 13.2 140.0
1972-07-09 06:00:00 14.2 139.4 14.0 139.3 14.1 139.2 14.1 138.9 14.0 139.4 14.2 139.4 14.2 139.4
1972-07-09 12:00:00 14.8 138.8 14.8 138.6 14.8 138.7 14.7 138.3 14.8 138.8 14.8 138.8 14.8 138.8
1972-07-09 18:00:00 15.5 138.1 15.5 137.8 15.4 137.8 15.5 137.8 15.4 138.2 15.5 138.1 15.5 138.1
1972-07-10 00:00:00 16.0 137.4 16.1 137.2 16.0 137.2 16.0 137.1 16.0 137.4 16.0 137.4 16.0 137.4
1972-07-10 06:00:00 16.7 136.3 16.8 136.3 16.8 136.3 16.8 136.3 16.6 136.4 16.7 136.3 16.7 136.3
1972-07-10 12:00:00 17.1 135.4 17.3 135.3 17.3 135.4 17.4 135.2 17.1 135.4 17.1 135.4 17.1 135.4
1972-07-10 18:00:00 17.4 134.7 17.4 134.6 17.4 134.6 17.6 134.6 17.5 134.7 17.4 134.7 17.4 134.7
1972-07-11 00:00:00 17.8 134.2 17.6 134.2 17.6 134.2 17.6 134.1 17.8 134.2 17.8 134.2 17.8 134.2
jtwc_wp tokyo cma hko td9636 td9635 ds824_wp
1972-07-11 06:00:00 17.9 133.7 17.8 133.8 17.8 133.7 17.7 133.8 18.0 133.6 17.9 133.7 17.9 133.7
1972-07-11 12:00:00 18.1 133.2 18.0 133.4 18.0 133.2 17.8 133.5 18.1 133.2 18.1 133.2 18.1 133.2
1972-07-11 18:00:00 18.1 133.0 18.3 133.0 18.2 133.0 17.9 133.2 18.1 133.0 18.1 133.0 18.1 133.0
1972-07-12 00:00:00 18.1 132.8 18.2 132.9 18.3 132.8 18.0 133.0 18.1 132.8 18.1 132.8 18.1 132.8
1972-07-12 06:00:00 18.1 132.6 18.2 132.7 18.3 132.6 18.2 132.8 18.1 132.5 18.1 132.6 18.1 132.6
1972-07-12 12:00:00 18.0 132.4 18.2 132.6 18.1 132.5 18.3 132.4 18.0 132.4 18.0 132.4 18.0 132.4
1972-07-12 18:00:00 17.9 132.5 18.1 132.5 18.0 132.5 18.1 132.2 17.9 132.5 17.9 132.5 17.9 132.5
1972-07-13 00:00:00 18.0 132.7 18.0 132.4 17.9 132.6 17.9 132.4 18.0 132.7 18.0 132.7 18.0 132.7
1972-07-13 06:00:00 18.3 133.1 18.0 132.6 18.2 133.1 18.6 133.0 18.2 133.0 18.3 133.1 18.3 133.1
1972-07-13 12:00:00 18.6 133.5 18.7 133.6 18.7 133.7 19.0 133.6 18.6 133.5 18.6 133.5 18.6 133.5
1972-07-13 18:00:00 18.9 133.9 19.3 134.4 19.2 134.3 19.4 134.1 19.0 134.0 18.9 133.9 18.9 133.9
1972-07-14 00:00:00 19.5 134.5 19.7 134.8 19.8 134.9 19.7 134.7 19.5 134.5 19.5 134.5 19.5 134.5
1972-07-14 06:00:00 20.0 135.0 20.3 135.3 20.4 135.3 20.3 135.0 20.1 135.0 20.0 135.0 20.0 135.0
1972-07-14 12:00:00 20.6 135.4 20.6 135.6 20.8 135.7 20.6 135.3 20.6 135.4 20.6 135.4 20.6 135.4
1972-07-14 18:00:00 21.0 135.8 20.9 135.6 21.0 135.8 20.9 135.4 21.0 135.7 21.0 135.8 21.0 135.8
1972-07-15 00:00:00 21.1 135.7 21.1 135.4 21.1 135.6 21.1 135.4 21.1 135.7 21.1 135.7 21.1 135.7
1972-07-15 06:00:00 20.9 135.4 21.2 135.3 21.1 135.1 21.3 135.3 21.0 135.4 20.9 135.4 20.9 135.4
1972-07-15 12:00:00 20.8 135.0 21.3 135.2 20.9 134.8 21.4 135.2 20.8 135.0 20.8 135.0 20.8 135.0
1972-07-15 18:00:00 21.0 134.9 21.4 135.1 20.8 135.1 21.5 135.1 21.0 134.9 21.0 134.9 21.0 134.9
1972-07-16 00:00:00 21.3 134.9 21.5 135.0 21.2 135.1 21.5 135.0 21.3 134.9 21.3 134.9 21.3 134.9
1972-07-16 06:00:00 21.5 134.8 21.6 134.9 21.6 134.9 21.7 134.7 21.5 134.8 21.5 134.8 21.5 134.8
1972-07-16 12:00:00 21.7 134.6 21.8 134.7 21.8 134.8 21.9 134.4 21.7 134.6 21.7 134.6 21.7 134.6
1972-07-16 18:00:00 22.2 134.3 22.2 134.4 22.2 134.5 22.2 134.2 22.1 134.4 22.2 134.3 22.2 134.3
1972-07-17 00:00:00 22.6 134.2 22.6 134.1 22.7 134.2 22.5 134.0 22.6 134.2 22.6 134.2 22.6 134.2
jtwc_wp tokyo cma hko td9636 td9635 ds824_wp
1972-07-17 06:00:00 22.9 133.8 23.0 133.8 23.0 133.8 22.9 133.6 22.9 134.0 22.9 133.8 22.9 133.8
1972-07-17 12:00:00 23.2 133.8 23.3 133.9 23.3 133.8 23.3 133.6 23.2 133.8 23.2 133.8 23.2 133.8
1972-07-17 18:00:00 23.4 133.9 23.4 133.9 23.5 133.9 23.5 133.7 23.5 133.8 23.4 133.9 23.4 133.9
1972-07-18 00:00:00 23.8 133.9 23.7 134.0 23.8 133.9 23.8 133.9 23.8 133.9 23.8 133.9 23.8 133.9
1972-07-18 06:00:00 24.1 134.0 24.3 134.2 24.2 134.1 24.6 134.0 24.3 134.1 24.1 134.0 24.1 134.0
1972-07-18 12:00:00 24.9 134.4 24.9 134.4 24.9 134.2 25.2 134.2 24.9 134.4 24.9 134.4 24.9 134.4
1972-07-18 18:00:00 25.5 134.6 25.5 134.5 25.6 134.4 25.7 134.3 25.5 134.6 25.5 134.6 25.5 134.6
1972-07-19 00:00:00 26.1 134.5 26.3 134.4 26.3 134.3 26.2 134.2 26.1 134.5 26.1 134.5 26.1 134.5
1972-07-19 06:00:00 26.9 134.1 26.8 133.9 26.8 134.0 27.0 133.6 26.8 134.1 26.9 134.1 26.9 134.1
1972-07-19 12:00:00 27.4 133.5 27.3 133.1 27.3 133.2 27.5 132.9 27.4 133.5 27.4 133.5 27.4 133.5
1972-07-19 18:00:00 27.7 132.6 27.6 132.4 27.7 132.6 27.9 132.3 27.8 132.7 27.7 132.6 27.7 132.6
1972-07-20 00:00:00 28.0 131.7 28.2 131.6 28.1 131.8 28.4 131.2 28.0 131.7 28.0 131.7 28.0 131.7
1972-07-20 06:00:00 28.3 130.6 28.5 130.6 28.3 130.6 28.6 130.5 28.3 130.6 28.3 130.6 28.3 130.6
1972-07-20 12:00:00 28.5 129.6 28.7 129.5 28.7 129.5 28.6 129.5 28.5 129.6 28.5 129.6 28.5 129.6
1972-07-20 18:00:00 28.7 128.8 28.8 128.7 28.8 128.9 28.7 128.6 28.7 128.7 28.7 128.8 28.7 128.8
1972-07-21 00:00:00 28.8 128.0 28.8 128.1 28.9 128.1 28.8 128.0 28.8 128.0 28.8 128.0 28.8 128.0
1972-07-21 06:00:00 28.7 127.5 28.8 127.4 28.8 127.4 28.7 127.4 28.7 127.5 28.7 127.5 28.7 127.5
1972-07-21 12:00:00 28.5 127.1 28.6 126.7 28.5 126.9 28.6 127.0 28.5 127.1 28.5 127.1 28.5 127.1
1972-07-21 18:00:00 28.1 126.6 28.4 126.2 28.2 126.6 28.4 126.4 28.2 126.5 28.1 126.6 28.1 126.6
1972-07-22 00:00:00 27.7 126.0 28.0 125.8 27.9 126.0 28.0 125.9 27.7 126.0 27.7 126.0 27.7 126.0
1972-07-22 06:00:00 27.3 125.6 27.6 125.4 27.5 125.5 27.5 125.4 27.2 125.6 27.3 125.6 27.3 125.6
1972-07-22 12:00:00 26.7 125.3 26.9 125.2 26.7 125.2 26.6 125.0 26.7 125.3 26.7 125.3 26.7 125.3
1972-07-22 18:00:00 26.1 125.1 26.3 125.2 26.1 125.1 26.1 124.9 26.1 125.1 26.1 125.1 26.1 125.1
1972-07-23 00:00:00 25.6 125.1 25.5 125.3 25.6 125.2 25.6 125.0 25.6 125.1 25.6 125.1 25.6 125.1
jtwc_wp tokyo cma hko td9636 td9635 ds824_wp
1972-07-23 06:00:00 25.1 125.2 25.0 125.4 25.2 125.4 25.2 125.3 25.1 125.2 25.1 125.2 25.1 125.2
1972-07-23 12:00:00 24.8 125.6 24.7 125.5 25.1 125.9 25.1 125.6 24.8 125.6 24.8 125.6 24.8 125.6
1972-07-23 18:00:00 24.9 126.3 24.7 126.3 25.2 126.5 25.2 126.2 25.0 126.3 24.9 126.3 24.9 126.3
1972-07-24 00:00:00 25.5 127.0 25.5 126.8 25.6 126.9 25.6 126.7 25.5 127.0 25.5 127.0 25.5 127.0
1972-07-24 06:00:00 26.1 127.4 26.0 127.3 26.1 127.2 26.2 127.1 26.1 127.4 26.1 127.4 26.1 127.4
1972-07-24 12:00:00 26.9 127.6 26.7 127.6 26.8 127.6 26.8 127.4 26.9 127.6 26.9 127.6 26.9 127.6
1972-07-24 18:00:00 27.6 127.8 27.5 127.8 27.5 127.8 27.5 127.7 27.6 127.9 27.6 127.8 27.6 127.8
1972-07-25 00:00:00 28.4 127.9 28.2 128.0 28.2 128.0 28.1 127.9 28.4 127.9 28.4 127.9 28.4 127.9
1972-07-25 06:00:00 29.3 127.7 29.3 127.7 29.2 127.7 29.4 127.6 29.2 127.5 29.3 127.7 29.3 127.7
1972-07-25 12:00:00 30.5 126.8 30.5 126.7 30.6 126.8 30.5 126.7 30.5 126.8 30.5 126.8 30.5 126.8
1972-07-25 18:00:00 32.0 126.2 31.8 125.8 32.0 126.0 32.0 125.9 32.5 126.2 32.0 126.2 32.0 126.2
1972-07-26 00:00:00 34.7 125.2 34.6 125.0 33.8 125.4 34.7 125.0 34.7 125.2 34.7 125.2 34.7 125.2
1972-07-26 06:00:00 37.1 123.1 37.0 123.0 36.8 123.1 37.5 122.7 36.8 123.2 37.1 123.1 37.1 123.1
1972-07-26 12:00:00 38.3 121.0 38.5 120.8 38.1 120.6 38.6 120.5 38.3 121.0 38.3 121.0 38.3 121.0
1972-07-26 18:00:00 38.6 119.5 39.0 118.9 38.8 119.2 38.8 119.4 38.6 119.5 38.6 119.5
1972-07-27 00:00:00 39.0 117.8 39.1 117.3 38.9 117.5 39.0 117.8 39.0 117.8 39.0 117.8
1972-07-27 06:00:00 40.0 115.5 39.2 116.3 39.9 116.6 39.9 115.3 40.0 115.5 40.0 115.5
1972-07-27 12:00:00 41.0 113.0 40.9 113.4 40.7 114.2 41.0 113.0 41.0 113.0 41.0 113.0
1972-07-27 18:00:00 42.0 112.0 41.9 112.1 42.3 111.6 42.0 112.0 42.0 112.0
1972-07-28 00:00:00 43.5 110.8 42.5 110.3 43.5 110.8 43.5 110.8 43.5 110.8
1972-07-28 06:00:00 44.0 110.5 43.3 109.7 44.1 110.3 44.0 110.5 44.0 110.5
1972-07-28 12:00:00 44.5 110.3 44.0 110.1 44.5 110.3 44.5 110.3 44.5 110.3
1972-07-28 18:00:00 44.9 110.5 44.7 111.0 44.9 110.3 44.9 110.5 44.9 110.5
1972-07-29 00:00:00 45.2 110.8 45.5 111.7 45.2 110.8 45.2 110.8 45.2 110.8
jtwc_wp tokyo cma hko td9636 td9635 ds824_wp
1972-07-29 06:00:00 45.4 112.0 46.3 112.8 45.5 111.8 45.4 112.0 45.4 112.0
1972-07-29 12:00:00 45.8 113.0 46.7 114.1 45.8 113.0 45.8 113.0 45.8 113.0
1972-07-29 18:00:00 47.2 115.8
1972-07-30 00:00:00 48.0 117.6

top of pageTrack Data:Intensity

jtwc_wp tokyo cma hko td9636 td9635 ds824_wp
Date Wind Pres Wind Pres Wind Pres Wind Pres Wind Pres Wind Pres Wind Pres
1972-07-05 00:00:00 10. 1008. 25. 25. 1008. 10.
1972-07-05 06:00:00 15. 1008. 25. 25. 1008. 15.
1972-07-05 12:00:00 15. 1008. 1008. 25. 25. 1007. 15.
1972-07-05 18:00:00 15. 1006. 1008. 25. 25. 1007. 15.
1972-07-06 00:00:00 20. 1006. 19. 1006. 25. 25. 1006. 20.
1972-07-06 06:00:00 20. 1006. 19. 1006. 25. 30. 1006. 20.
1972-07-06 12:00:00 25. 1006. 23. 1006. 30. 30. 1006. 25.
1972-07-06 18:00:00 30. 1006. 23. 1006. 30. 30. 1005. 30.
1972-07-07 00:00:00 35. 1006. 23. 1002. 30. 1006. 35. 35. 1004. 35.
1972-07-07 06:00:00 45. 1004. 29. 998. 40. 998. 35. 45. 998. 45.
1972-07-07 12:00:00 55. 992. 49. 993. 50. 993. 55. 55. 993. 55.
1972-07-07 18:00:00 60. 990. 49. 988. 55. 988. 55. 60. 989. 60.
1972-07-08 00:00:00 60. 985. 58. 983. 60. 983. 60. 60. 984. 60.
1972-07-08 06:00:00 65. 980. 68. 978. 65. 980. 60. 65. 978. 65.
1972-07-08 12:00:00 75. 970. 78. 970. 70. 970. 75. 75. 971. 75.
1972-07-08 18:00:00 90. 960. 107. 958. 80. 960. 75. 90. 958. 90.
1972-07-09 00:00:00 100. 950. 126. 951. 90. 950. 100. 100. 951. 100.
1972-07-09 06:00:00 100. 945. 126. 945. 90. 945. 100. 100. 945. 100.
1972-07-09 12:00:00 110. 935. 126. 935. 95. 940. 110. 110. 939. 110.
1972-07-09 18:00:00 125. 925. 126. 924. 110. 935. 110. 125. 933. 125.
1972-07-10 00:00:00 130. 930. 126. 924. 115. 930. 130. 130. 927. 130.
1972-07-10 06:00:00 135. 920. 126. 920. 120. 925. 130. 135. 922. 135.
1972-07-10 12:00:00 140. 915. 126. 917. 125. 920. 140. 140. 916. 140.
1972-07-10 18:00:00 140. 915. 126. 912. 125. 915. 140. 140. 912. 140.
1972-07-11 00:00:00 145. 910. 126. 911. 130. 910. 145. 145. 911. 145.
jtwc_wp tokyo cma hko td9636 td9635 ds824_wp
1972-07-11 06:00:00 140. 915. 126. 920. 125. 920. 145. 140. 918. 140.
1972-07-11 12:00:00 145. 925. 117. 930. 130. 930. 145. 145. 930. 145.
1972-07-11 18:00:00 140. 935. 107. 938. 125. 935. 145. 140. 937. 140.
1972-07-12 00:00:00 125. 940. 97. 941. 110. 940. 125. 125. 940. 125.
1972-07-12 06:00:00 120. 945. 87. 945. 105. 945. 125. 120. 942. 120.
1972-07-12 12:00:00 110. 945. 78. 948. 95. 945. 110. 110. 945. 110.
1972-07-12 18:00:00 100. 950. 78. 948. 90. 950. 110. 100. 948. 100.
1972-07-13 00:00:00 100. 950. 68. 952. 90. 950. 100. 100. 951. 100.
1972-07-13 06:00:00 95. 955. 68. 955. 85. 955. 100. 95. 955. 95.
1972-07-13 12:00:00 95. 960. 68. 960. 85. 960. 95. 95. 960. 95.
1972-07-13 18:00:00 95. 965. 68. 963. 85. 965. 95. 95. 964. 95.
1972-07-14 00:00:00 90. 965. 68. 965. 80. 965. 90. 90. 965. 90.
1972-07-14 06:00:00 85. 965. 68. 965. 75. 965. 90. 85. 966. 85.
1972-07-14 12:00:00 80. 965. 68. 965. 75. 965. 80. 80. 964. 80.
1972-07-14 18:00:00 85. 965. 68. 965. 75. 965. 80. 85. 962. 85.
1972-07-15 00:00:00 85. 965. 68. 965. 75. 965. 85. 85. 965. 85.
1972-07-15 06:00:00 85. 965. 68. 965. 70. 965. 85. 85. 965. 85.
1972-07-15 12:00:00 80. 965. 68. 965. 70. 965. 80. 80. 965. 80.
1972-07-15 18:00:00 70. 965. 68. 965. 65. 965. 80. 70. 965. 70.
1972-07-16 00:00:00 65. 965. 68. 965. 65. 965. 65. 65. 965. 65.
1972-07-16 06:00:00 65. 965. 68. 965. 65. 965. 65. 65. 965. 65.
1972-07-16 12:00:00 65. 965. 68. 965. 65. 965. 65. 65. 965. 65.
1972-07-16 18:00:00 65. 965. 68. 965. 65. 965. 65. 65. 966. 65.
1972-07-17 00:00:00 65. 965. 68. 965. 65. 965. 65. 65. 966. 65.
jtwc_wp tokyo cma hko td9636 td9635 ds824_wp
1972-07-17 06:00:00 65. 965. 68. 965. 65. 965. 65. 65. 966. 65.
1972-07-17 12:00:00 70. 965. 68. 965. 65. 965. 70. 70. 966. 70.
1972-07-17 18:00:00 70. 960. 68. 964. 65. 965. 70. 70. 963. 70.
1972-07-18 00:00:00 80. 960. 68. 962. 70. 960. 80. 80. 962. 80.
1972-07-18 06:00:00 90. 960. 68. 962. 80. 960. 80. 90. 961. 90.
1972-07-18 12:00:00 95. 960. 68. 961. 85. 960. 95. 95. 960. 95.
1972-07-18 18:00:00 85. 960. 68. 961. 75. 960. 95. 85. 961. 85.
1972-07-19 00:00:00 80. 960. 68. 960. 75. 960. 80. 80. 960. 80.
1972-07-19 06:00:00 85. 960. 68. 960. 75. 960. 80. 85. 961. 85.
1972-07-19 12:00:00 85. 965. 68. 962. 75. 960. 85. 85. 963. 85.
1972-07-19 18:00:00 80. 965. 68. 964. 70. 965. 85. 80. 964. 80.
1972-07-20 00:00:00 75. 965. 68. 964. 70. 965. 75. 75. 965. 75.
1972-07-20 06:00:00 75. 965. 68. 965. 70. 965. 75. 75. 964. 75.
1972-07-20 12:00:00 70. 970. 68. 966. 65. 965. 70. 70. 964. 70.
1972-07-20 18:00:00 65. 970. 68. 967. 65. 965. 70. 65. 967. 65.
1972-07-21 00:00:00 65. 970. 68. 969. 65. 970. 65. 65. 970. 65.
1972-07-21 06:00:00 65. 970. 68. 970. 65. 970. 65. 65. 971. 65.
1972-07-21 12:00:00 65. 970. 68. 967. 65. 965. 65. 65. 967. 65.
1972-07-21 18:00:00 70. 965. 68. 966. 70. 965. 65. 70. 966. 70.
1972-07-22 00:00:00 85. 960. 68. 964. 75. 965. 85. 85. 963. 85.
1972-07-22 06:00:00 85. 960. 68. 960. 75. 960. 85. 85. 961. 85.
1972-07-22 12:00:00 85. 960. 68. 958. 75. 960. 85. 85. 959. 85.
1972-07-22 18:00:00 85. 960. 68. 960. 75. 960. 85. 85. 960. 85.
1972-07-23 00:00:00 85. 960. 68. 960. 75. 960. 85. 85. 961. 85.
jtwc_wp tokyo cma hko td9636 td9635 ds824_wp
1972-07-23 06:00:00 75. 960. 68. 960. 65. 960. 85. 75. 961. 75.
1972-07-23 12:00:00 80. 960. 68. 960. 70. 960. 80. 80. 960. 80.
1972-07-23 18:00:00 85. 960. 68. 959. 75. 960. 80. 85. 960. 85.
1972-07-24 00:00:00 90. 960. 68. 958. 80. 960. 90. 90. 957. 90.
1972-07-24 06:00:00 80. 955. 68. 955. 70. 955. 90. 80. 954. 80.
1972-07-24 12:00:00 80. 955. 68. 954. 70. 955. 80. 80. 954. 80.
1972-07-24 18:00:00 80. 955. 68. 955. 70. 955. 80. 80. 955. 80.
1972-07-25 00:00:00 80. 955. 68. 957. 70. 955. 80. 80. 957. 80.
1972-07-25 06:00:00 75. 955. 68. 957. 65. 955. 80. 75. 955. 75.
1972-07-25 12:00:00 70. 960. 68. 960. 65. 960. 70. 70. 961. 70.
1972-07-25 18:00:00 75. 965. 58. 965. 65. 970. 70. 75. 967. 75.
1972-07-26 00:00:00 75. 970. 58. 970. 65. 970. 75. 75. 970. 75.
1972-07-26 06:00:00 65. 970. 58. 970. 65. 970. 75. 65. 972. 65.
1972-07-26 12:00:00 55. 975. 58. 975. 65. 975. 55. 55. 975. 55.
1972-07-26 18:00:00 35. 984. 49. 975. 55. 35. 981. 35.
1972-07-27 00:00:00 25. 988. 29. 980. 25. 25. 988. 25.
1972-07-27 06:00:00 20. 990. 29. 990. 25. 20. 992. 20.
1972-07-27 12:00:00 20. 996. 19. 998. 20. 20. 996. 20.
1972-07-27 18:00:00 15. 17. 998. 20. 15. 999. 15.
1972-07-28 00:00:00 15. 17. 1000. 15. 15. 1002. 15.
1972-07-28 06:00:00 15. 17. 998. 15. 15. 999. 15.
1972-07-28 12:00:00 20. 17. 996. 20. 20. 996. 20.
1972-07-28 18:00:00 15. 17. 998. 20. 15. 998. 15.
1972-07-29 00:00:00 10. 17. 998. 10. 10. 998. 10.
jtwc_wp tokyo cma hko td9636 td9635 ds824_wp
1972-07-29 06:00:00 10. 17. 998. 10. 10. 998. 10.
1972-07-29 12:00:00 10. 17. 1000. 10. 10. 998. 10.
1972-07-29 18:00:00 17. 1000.
1972-07-30 00:00:00 17. 1000.

top of page Links to source data

Source Source file Format
jtwc_wp bwp081972.txt ATCF
tokyo bst_all.txt:Line=21476:RITA:7207 JMA text table
cma CH1972BST.txt:Storm=9:Rita CMA text table
hko tc-besttrack-data-current.txt:Line=8313:RITA HKO Text table
td9636 cons_worldwide_trop_cyclone_18710101-19891231-003:Line=23333 TD 9636
td9635 typhoons-analogs_19450101-19761231.corrected:Line=16512 TD 9635
ds824_wp w_npac.dat:755:RITA HURDAT